sensor_id;sensor_type;location;lat;lon;timestamp;temperature;humidity
24103;DHT22;12278;53.058;9.028;2022-11-15T00:00:24;7.80;99.90
24103;DHT22;12278;53.058;9.028;2022-11-15T00:04:25;7.80;99.90
24103;DHT22;12278;53.058;9.028;2022-11-15T00:08:28;7.80;99.90
24103;DHT22;12278;53.058;9.028;2022-11-15T00:12:28;7.70;99.90
24103;DHT22;12278;53.058;9.028;2022-11-15T00:16:29;7.70;99.90
24103;DHT22;12278;53.058;9.028;2022-11-15T00:20:29;7.70;99.90
24103;DHT22;12278;53.058;9.028;2022-11-15T00:24:30;7.50;99.90
24103;DHT22;12278;53.058;9.028;2022-11-15T00:28:30;7.40;99.90
24103;DHT22;12278;53.058;9.028;2022-11-15T00:32:31;7.50;99.90
24103;DHT22;12278;53.058;9.028;2022-11-15T00:36:32;7.50;99.90
24103;DHT22;12278;53.058;9.028;2022-11-15T00:40:33;7.40;99.90
24103;DHT22;12278;53.058;9.028;2022-11-15T00:44:34;7.40;99.90
24103;DHT22;12278;53.058;9.028;2022-11-15T00:48:35;7.30;99.90
24103;DHT22;12278;53.058;9.028;2022-11-15T00:52:35;7.40;99.90
24103;DHT22;12278;53.058;9.028;2022-11-15T00:56:36;7.50;99.90
24103;DHT22;12278;53.058;9.028;2022-11-15T01:00:36;7.50;99.90
24103;DHT22;12278;53.058;9.028;2022-11-15T01:04:37;7.40;99.90
24103;DHT22;12278;53.058;9.028;2022-11-15T01:08:46;7.40;99.90
24103;DHT22;12278;53.058;9.028;2022-11-15T01:12:47;7.30;99.90
24103;DHT22;12278;53.058;9.028;2022-11-15T01:16:48;7.30;99.90
24103;DHT22;12278;53.058;9.028;2022-11-15T01:20:48;7.20;99.90
24103;DHT22;12278;53.058;9.028;2022-11-15T01:24:49;7.10;99.90
24103;DHT22;12278;53.058;9.028;2022-11-15T01:28:50;7.00;99.90
24103;DHT22;12278;53.058;9.028;2022-11-15T01:32:51;7.00;99.90
24103;DHT22;12278;53.058;9.028;2022-11-15T01:36:51;7.00;99.90
24103;DHT22;12278;53.058;9.028;2022-11-15T01:40:53;6.90;99.90
24103;DHT22;12278;53.058;9.028;2022-11-15T01:44:53;6.80;99.90
24103;DHT22;12278;53.058;9.028;2022-11-15T01:48:55;6.90;99.90
24103;DHT22;12278;53.058;9.028;2022-11-15T01:52:57;6.90;99.90
24103;DHT22;12278;53.058;9.028;2022-11-15T01:57:06;6.80;99.90
24103;DHT22;12278;53.058;9.028;2022-11-15T02:01:08;6.90;99.90
24103;DHT22;12278;53.058;9.028;2022-11-15T02:05:08;7.00;99.90
24103;DHT22;12278;53.058;9.028;2022-11-15T02:09:09;7.10;99.90
24103;DHT22;12278;53.058;9.028;2022-11-15T02:13:10;7.20;99.90
24103;DHT22;12278;53.058;9.028;2022-11-15T02:17:21;7.30;99.90
24103;DHT22;12278;53.058;9.028;2022-11-15T02:21:30;7.40;99.90
24103;DHT22;12278;53.058;9.028;2022-11-15T02:29:59;7.50;99.90
24103;DHT22;12278;53.058;9.028;2022-11-15T02:42:33;7.80;99.90
24103;DHT22;12278;53.058;9.028;2022-11-15T02:46:57;7.90;99.90
24103;DHT22;12278;53.058;9.028;2022-11-15T02:51:13;8.00;99.90
24103;DHT22;12278;53.058;9.028;2022-11-15T02:55:49;8.10;99.90
24103;DHT22;12278;53.058;9.028;2022-11-15T03:12:03;8.30;99.90
24103;DHT22;12278;53.058;9.028;2022-11-15T03:16:06;8.30;99.90
24103;DHT22;12278;53.058;9.028;2022-11-15T03:20:08;8.40;99.90
24103;DHT22;12278;53.058;9.028;2022-11-15T03:24:10;8.50;99.90
24103;DHT22;12278;53.058;9.028;2022-11-15T03:28:15;8.50;99.90
24103;DHT22;12278;53.058;9.028;2022-11-15T03:32:26;8.50;99.90
24103;DHT22;12278;53.058;9.028;2022-11-15T03:36:29;8.50;99.90
24103;DHT22;12278;53.058;9.028;2022-11-15T03:49:18;8.60;99.90
24103;DHT22;12278;53.058;9.028;2022-11-15T03:53:20;8.70;99.90
24103;DHT22;12278;53.058;9.028;2022-11-15T03:57:21;8.80;99.90
24103;DHT22;12278;53.058;9.028;2022-11-15T04:01:22;8.80;99.90
24103;DHT22;12278;53.058;9.028;2022-11-15T04:05:23;8.90;99.90
24103;DHT22;12278;53.058;9.028;2022-11-15T04:09:23;8.90;99.90
24103;DHT22;12278;53.058;9.028;2022-11-15T04:13:24;9.00;99.90
24103;DHT22;12278;53.058;9.028;2022-11-15T04:17:24;9.10;99.90
24103;DHT22;12278;53.058;9.028;2022-11-15T04:21:25;9.20;99.90
24103;DHT22;12278;53.058;9.028;2022-11-15T04:25:45;9.40;99.90
24103;DHT22;12278;53.058;9.028;2022-11-15T04:29:47;9.40;99.90
24103;DHT22;12278;53.058;9.028;2022-11-15T04:33:48;9.40;99.90
24103;DHT22;12278;53.058;9.028;2022-11-15T04:37:48;9.40;99.90
24103;DHT22;12278;53.058;9.028;2022-11-15T04:41:49;9.50;99.90
24103;DHT22;12278;53.058;9.028;2022-11-15T04:45:49;9.60;99.90
24103;DHT22;12278;53.058;9.028;2022-11-15T04:49:52;9.70;99.90
24103;DHT22;12278;53.058;9.028;2022-11-15T04:53:52;9.70;99.90
24103;DHT22;12278;53.058;9.028;2022-11-15T04:57:59;9.60;99.90
24103;DHT22;12278;53.058;9.028;2022-11-15T05:02:00;9.70;99.90
24103;DHT22;12278;53.058;9.028;2022-11-15T05:06:00;9.70;99.90
24103;DHT22;12278;53.058;9.028;2022-11-15T05:10:03;9.70;99.90
24103;DHT22;12278;53.058;9.028;2022-11-15T05:14:03;9.60;99.90
24103;DHT22;12278;53.058;9.028;2022-11-15T05:18:04;9.70;99.90
24103;DHT22;12278;53.058;9.028;2022-11-15T05:22:04;9.70;99.90
24103;DHT22;12278;53.058;9.028;2022-11-15T05:26:05;9.60;99.90
24103;DHT22;12278;53.058;9.028;2022-11-15T05:30:06;9.70;99.90
24103;DHT22;12278;53.058;9.028;2022-11-15T05:34:07;9.70;99.90
24103;DHT22;12278;53.058;9.028;2022-11-15T05:38:07;9.80;99.90
24103;DHT22;12278;53.058;9.028;2022-11-15T05:42:13;9.80;99.90
24103;DHT22;12278;53.058;9.028;2022-11-15T05:46:20;9.90;99.90
24103;DHT22;12278;53.058;9.028;2022-11-15T05:50:20;10.00;99.90
24103;DHT22;12278;53.058;9.028;2022-11-15T05:54:21;10.00;99.90
24103;DHT22;12278;53.058;9.028;2022-11-15T05:58:23;10.10;99.90
24103;DHT22;12278;53.058;9.028;2022-11-15T06:02:24;10.20;99.90
24103;DHT22;12278;53.058;9.028;2022-11-15T06:06:24;10.20;99.90
24103;DHT22;12278;53.058;9.028;2022-11-15T06:10:25;10.20;99.90
24103;DHT22;12278;53.058;9.028;2022-11-15T06:14:25;10.20;99.90
24103;DHT22;12278;53.058;9.028;2022-11-15T06:18:26;10.20;99.90
24103;DHT22;12278;53.058;9.028;2022-11-15T06:22:27;10.20;99.90
24103;DHT22;12278;53.058;9.028;2022-11-15T06:26:27;10.10;99.90
24103;DHT22;12278;53.058;9.028;2022-11-15T06:30:28;10.20;99.90
24103;DHT22;12278;53.058;9.028;2022-11-15T06:34:28;10.20;99.90
24103;DHT22;12278;53.058;9.028;2022-11-15T06:38:29;10.20;99.90
24103;DHT22;12278;53.058;9.028;2022-11-15T06:42:29;10.20;99.90
24103;DHT22;12278;53.058;9.028;2022-11-15T06:46:30;10.30;99.90
24103;DHT22;12278;53.058;9.028;2022-11-15T06:50:31;10.30;99.90
24103;DHT22;12278;53.058;9.028;2022-11-15T06:54:31;10.40;99.90
24103;DHT22;12278;53.058;9.028;2022-11-15T06:58:32;10.30;99.90
24103;DHT22;12278;53.058;9.028;2022-11-15T07:02:32;10.30;99.90
24103;DHT22;12278;53.058;9.028;2022-11-15T07:06:33;10.30;99.90
24103;DHT22;12278;53.058;9.028;2022-11-15T07:10:34;10.30;99.90
24103;DHT22;12278;53.058;9.028;2022-11-15T07:14:35;10.20;99.90
24103;DHT22;12278;53.058;9.028;2022-11-15T07:18:36;10.30;99.90
24103;DHT22;12278;53.058;9.028;2022-11-15T07:22:37;10.30;99.90
24103;DHT22;12278;53.058;9.028;2022-11-15T07:26:38;10.40;99.90
24103;DHT22;12278;53.058;9.028;2022-11-15T07:30:38;10.40;99.90
24103;DHT22;12278;53.058;9.028;2022-11-15T07:34:39;10.50;99.90
24103;DHT22;12278;53.058;9.028;2022-11-15T07:38:39;10.60;99.90
24103;DHT22;12278;53.058;9.028;2022-11-15T07:42:40;10.70;99.90
24103;DHT22;12278;53.058;9.028;2022-11-15T07:46:56;10.80;99.90
24103;DHT22;12278;53.058;9.028;2022-11-15T07:50:58;10.90;99.90
24103;DHT22;12278;53.058;9.028;2022-11-15T07:54:58;11.00;99.90
24103;DHT22;12278;53.058;9.028;2022-11-15T07:58:59;11.00;99.90
24103;DHT22;12278;53.058;9.028;2022-11-15T08:03:04;11.10;99.90
24103;DHT22;12278;53.058;9.028;2022-11-15T08:07:05;11.20;99.90
24103;DHT22;12278;53.058;9.028;2022-11-15T08:11:05;11.30;99.90
24103;DHT22;12278;53.058;9.028;2022-11-15T08:15:06;11.40;99.90
24103;DHT22;12278;53.058;9.028;2022-11-15T08:19:06;11.50;99.90
24103;DHT22;12278;53.058;9.028;2022-11-15T08:23:07;11.70;99.90
24103;DHT22;12278;53.058;9.028;2022-11-15T08:27:08;11.80;99.90
24103;DHT22;12278;53.058;9.028;2022-11-15T08:31:15;12.10;99.90
24103;DHT22;12278;53.058;9.028;2022-11-15T08:35:17;12.10;99.90
24103;DHT22;12278;53.058;9.028;2022-11-15T08:39:17;12.10;99.90
24103;DHT22;12278;53.058;9.028;2022-11-15T08:43:18;12.10;99.90
24103;DHT22;12278;53.058;9.028;2022-11-15T08:47:18;12.10;99.90
24103;DHT22;12278;53.058;9.028;2022-11-15T08:51:19;12.10;99.90
24103;DHT22;12278;53.058;9.028;2022-11-15T08:55:19;12.20;99.90
24103;DHT22;12278;53.058;9.028;2022-11-15T08:59:20;12.20;99.90
24103;DHT22;12278;53.058;9.028;2022-11-15T09:03:20;12.20;99.90
24103;DHT22;12278;53.058;9.028;2022-11-15T09:07:21;12.00;99.90
24103;DHT22;12278;53.058;9.028;2022-11-15T09:11:21;12.10;99.90
24103;DHT22;12278;53.058;9.028;2022-11-15T09:15:23;12.10;99.90
24103;DHT22;12278;53.058;9.028;2022-11-15T09:19:24;12.00;99.90
24103;DHT22;12278;53.058;9.028;2022-11-15T09:23:25;12.00;99.90
24103;DHT22;12278;53.058;9.028;2022-11-15T09:27:29;12.10;99.90
24103;DHT22;12278;53.058;9.028;2022-11-15T09:31:30;12.00;99.90
24103;DHT22;12278;53.058;9.028;2022-11-15T09:35:31;11.90;99.90
24103;DHT22;12278;53.058;9.028;2022-11-15T09:39:32;12.00;99.90
24103;DHT22;12278;53.058;9.028;2022-11-15T09:48:19;12.10;99.90
24103;DHT22;12278;53.058;9.028;2022-11-15T09:52:24;12.00;99.90
24103;DHT22;12278;53.058;9.028;2022-11-15T09:56:28;12.20;99.90
24103;DHT22;12278;53.058;9.028;2022-11-15T10:00:44;12.30;99.90
24103;DHT22;12278;53.058;9.028;2022-11-15T10:04:45;12.40;99.90
24103;DHT22;12278;53.058;9.028;2022-11-15T10:12:54;13.60;99.90
24103;DHT22;12278;53.058;9.028;2022-11-15T10:22:10;16.30;99.90
24103;DHT22;12278;53.058;9.028;2022-11-15T10:25:53;17.00;99.90
24103;DHT22;12278;53.058;9.028;2022-11-15T10:29:54;17.50;99.90
24103;DHT22;12278;53.058;9.028;2022-11-15T10:34:10;16.20;99.90
24103;DHT22;12278;53.058;9.028;2022-11-15T10:38:12;15.10;99.90
24103;DHT22;12278;53.058;9.028;2022-11-15T10:42:26;14.20;99.90
24103;DHT22;12278;53.058;9.028;2022-11-15T10:46:27;13.90;99.90
24103;DHT22;12278;53.058;9.028;2022-11-15T10:50:29;13.60;99.90
24103;DHT22;12278;53.058;9.028;2022-11-15T10:58:44;13.60;99.90
24103;DHT22;12278;53.058;9.028;2022-11-15T11:02:59;13.60;99.90
24103;DHT22;12278;53.058;9.028;2022-11-15T11:07:00;13.60;99.90
24103;DHT22;12278;53.058;9.028;2022-11-15T11:11:01;13.70;99.90
24103;DHT22;12278;53.058;9.028;2022-11-15T11:15:08;13.90;99.90
24103;DHT22;12278;53.058;9.028;2022-11-15T11:19:35;14.10;99.90
24103;DHT22;12278;53.058;9.028;2022-11-15T11:36:13;14.50;99.90
24103;DHT22;12278;53.058;9.028;2022-11-15T11:40:20;14.50;99.90
24103;DHT22;12278;53.058;9.028;2022-11-15T11:49:10;14.70;99.90
24103;DHT22;12278;53.058;9.028;2022-11-15T12:01:37;15.70;99.90
24103;DHT22;12278;53.058;9.028;2022-11-15T12:05:52;15.60;99.90
24103;DHT22;12278;53.058;9.028;2022-11-15T12:10:05;15.50;99.90
24103;DHT22;12278;53.058;9.028;2022-11-15T12:14:54;15.70;99.90
24103;DHT22;12278;53.058;9.028;2022-11-15T12:18:53;15.70;99.90
24103;DHT22;12278;53.058;9.028;2022-11-15T12:23:11;15.70;99.90
24103;DHT22;12278;53.058;9.028;2022-11-15T12:27:37;15.70;99.90
24103;DHT22;12278;53.058;9.028;2022-11-15T12:31:41;15.70;99.90
24103;DHT22;12278;53.058;9.028;2022-11-15T12:35:44;15.40;99.90
24103;DHT22;12278;53.058;9.028;2022-11-15T12:44:12;15.30;99.90
24103;DHT22;12278;53.058;9.028;2022-11-15T12:52:17;15.10;99.90
24103;DHT22;12278;53.058;9.028;2022-11-15T12:56:20;15.20;99.90
24103;DHT22;12278;53.058;9.028;2022-11-15T13:04:25;15.30;99.90
24103;DHT22;12278;53.058;9.028;2022-11-15T13:08:45;15.00;99.90
24103;DHT22;12278;53.058;9.028;2022-11-15T13:12:50;14.80;99.90
24103;DHT22;12278;53.058;9.028;2022-11-15T13:16:58;14.80;99.90
24103;DHT22;12278;53.058;9.028;2022-11-15T13:20:59;14.90;99.90
24103;DHT22;12278;53.058;9.028;2022-11-15T13:25:04;15.10;99.90
24103;DHT22;12278;53.058;9.028;2022-11-15T13:29:18;15.10;99.90
24103;DHT22;12278;53.058;9.028;2022-11-15T13:33:36;15.20;99.90
24103;DHT22;12278;53.058;9.028;2022-11-15T13:37:39;15.60;99.90
24103;DHT22;12278;53.058;9.028;2022-11-15T13:41:50;15.80;99.90
24103;DHT22;12278;53.058;9.028;2022-11-15T13:50:12;15.80;99.90
24103;DHT22;12278;53.058;9.028;2022-11-15T13:58:13;16.30;99.90
24103;DHT22;12278;53.058;9.028;2022-11-15T14:02:26;16.50;99.90
24103;DHT22;12278;53.058;9.028;2022-11-15T14:06:29;17.50;99.90
24103;DHT22;12278;53.058;9.028;2022-11-15T14:10:34;18.30;99.90
24103;DHT22;12278;53.058;9.028;2022-11-15T14:14:44;18.80;99.90
24103;DHT22;12278;53.058;9.028;2022-11-15T14:18:51;19.60;99.90
24103;DHT22;12278;53.058;9.028;2022-11-15T14:22:57;19.50;99.90
24103;DHT22;12278;53.058;9.028;2022-11-15T14:31:23;17.30;99.90
24103;DHT22;12278;53.058;9.028;2022-11-15T14:35:23;16.20;99.90
24103;DHT22;12278;53.058;9.028;2022-11-15T14:39:24;15.50;99.90
24103;DHT22;12278;53.058;9.028;2022-11-15T14:43:25;15.20;99.90
24103;DHT22;12278;53.058;9.028;2022-11-15T14:47:26;14.80;99.90
24103;DHT22;12278;53.058;9.028;2022-11-15T14:51:26;14.60;99.90
24103;DHT22;12278;53.058;9.028;2022-11-15T14:55:32;14.30;99.90
24103;DHT22;12278;53.058;9.028;2022-11-15T14:59:35;14.10;99.90
24103;DHT22;12278;53.058;9.028;2022-11-15T15:03:36;14.00;99.90
24103;DHT22;12278;53.058;9.028;2022-11-15T15:07:36;13.90;99.90
24103;DHT22;12278;53.058;9.028;2022-11-15T15:11:37;13.80;99.90
24103;DHT22;12278;53.058;9.028;2022-11-15T15:15:37;13.70;99.90
24103;DHT22;12278;53.058;9.028;2022-11-15T15:19:38;13.60;99.90
24103;DHT22;12278;53.058;9.028;2022-11-15T15:23:39;13.60;99.90
24103;DHT22;12278;53.058;9.028;2022-11-15T15:27:39;13.50;99.90
24103;DHT22;12278;53.058;9.028;2022-11-15T15:31:42;13.40;99.90
24103;DHT22;12278;53.058;9.028;2022-11-15T15:35:43;13.30;99.90
24103;DHT22;12278;53.058;9.028;2022-11-15T15:39:43;13.20;99.90
24103;DHT22;12278;53.058;9.028;2022-11-15T15:43:44;13.10;99.90
24103;DHT22;12278;53.058;9.028;2022-11-15T15:47:45;12.90;99.90
24103;DHT22;12278;53.058;9.028;2022-11-15T15:51:46;12.90;99.90
24103;DHT22;12278;53.058;9.028;2022-11-15T15:55:46;12.80;99.90
24103;DHT22;12278;53.058;9.028;2022-11-15T15:59:47;12.80;99.90
24103;DHT22;12278;53.058;9.028;2022-11-15T16:03:48;13.00;99.90
24103;DHT22;12278;53.058;9.028;2022-11-15T16:07:48;12.90;99.90
24103;DHT22;12278;53.058;9.028;2022-11-15T16:11:49;12.90;99.90
24103;DHT22;12278;53.058;9.028;2022-11-15T16:15:53;12.90;99.90
24103;DHT22;12278;53.058;9.028;2022-11-15T16:19:54;12.80;99.90
24103;DHT22;12278;53.058;9.028;2022-11-15T16:23:55;12.80;99.90
24103;DHT22;12278;53.058;9.028;2022-11-15T16:27:56;12.80;99.90
24103;DHT22;12278;53.058;9.028;2022-11-15T16:31:56;12.80;99.90
24103;DHT22;12278;53.058;9.028;2022-11-15T16:35:57;12.80;99.90
24103;DHT22;12278;53.058;9.028;2022-11-15T16:39:57;12.80;99.90
24103;DHT22;12278;53.058;9.028;2022-11-15T16:44:00;12.80;99.90
24103;DHT22;12278;53.058;9.028;2022-11-15T16:48:00;12.80;99.90
24103;DHT22;12278;53.058;9.028;2022-11-15T16:52:01;12.70;99.90
24103;DHT22;12278;53.058;9.028;2022-11-15T16:56:01;12.80;99.90
24103;DHT22;12278;53.058;9.028;2022-11-15T17:00:02;12.70;99.90
24103;DHT22;12278;53.058;9.028;2022-11-15T17:04:03;12.70;99.90
24103;DHT22;12278;53.058;9.028;2022-11-15T17:08:11;12.80;99.90
24103;DHT22;12278;53.058;9.028;2022-11-15T17:12:12;12.80;99.90
24103;DHT22;12278;53.058;9.028;2022-11-15T17:16:14;12.90;99.90
24103;DHT22;12278;53.058;9.028;2022-11-15T17:20:16;13.00;99.90
24103;DHT22;12278;53.058;9.028;2022-11-15T17:24:17;13.00;99.90
24103;DHT22;12278;53.058;9.028;2022-11-15T17:28:20;13.10;99.90
24103;DHT22;12278;53.058;9.028;2022-11-15T17:32:20;13.00;99.90
24103;DHT22;12278;53.058;9.028;2022-11-15T17:36:21;13.00;99.90
24103;DHT22;12278;53.058;9.028;2022-11-15T17:40:22;13.00;99.90
24103;DHT22;12278;53.058;9.028;2022-11-15T17:44:22;13.00;99.90
24103;DHT22;12278;53.058;9.028;2022-11-15T17:48:23;13.00;99.90
24103;DHT22;12278;53.058;9.028;2022-11-15T17:52:23;12.90;99.90
24103;DHT22;12278;53.058;9.028;2022-11-15T17:56:25;12.90;99.90
24103;DHT22;12278;53.058;9.028;2022-11-15T18:00:25;12.80;99.90
24103;DHT22;12278;53.058;9.028;2022-11-15T18:04:26;12.80;99.90
24103;DHT22;12278;53.058;9.028;2022-11-15T18:08:27;12.80;99.90
24103;DHT22;12278;53.058;9.028;2022-11-15T18:12:27;12.70;99.90
24103;DHT22;12278;53.058;9.028;2022-11-15T18:16:29;12.70;99.90
24103;DHT22;12278;53.058;9.028;2022-11-15T18:20:31;12.70;99.90
24103;DHT22;12278;53.058;9.028;2022-11-15T18:24:35;12.70;99.90
24103;DHT22;12278;53.058;9.028;2022-11-15T18:28:39;12.70;99.90
24103;DHT22;12278;53.058;9.028;2022-11-15T18:32:40;12.60;99.90
24103;DHT22;12278;53.058;9.028;2022-11-15T18:36:49;12.60;99.90
24103;DHT22;12278;53.058;9.028;2022-11-15T18:40:50;12.50;99.90
24103;DHT22;12278;53.058;9.028;2022-11-15T18:44:51;12.40;99.90
24103;DHT22;12278;53.058;9.028;2022-11-15T18:48:53;12.40;99.90
24103;DHT22;12278;53.058;9.028;2022-11-15T18:52:53;12.40;99.90
24103;DHT22;12278;53.058;9.028;2022-11-15T18:56:54;12.40;99.90
24103;DHT22;12278;53.058;9.028;2022-11-15T19:01:06;12.30;99.90
24103;DHT22;12278;53.058;9.028;2022-11-15T19:05:07;12.40;99.90
24103;DHT22;12278;53.058;9.028;2022-11-15T19:09:10;12.40;99.90
24103;DHT22;12278;53.058;9.028;2022-11-15T19:13:11;12.40;99.90
24103;DHT22;12278;53.058;9.028;2022-11-15T19:17:12;12.40;99.90
24103;DHT22;12278;53.058;9.028;2022-11-15T19:21:13;12.40;99.90
24103;DHT22;12278;53.058;9.028;2022-11-15T19:25:14;12.50;99.90
24103;DHT22;12278;53.058;9.028;2022-11-15T19:29:14;12.40;99.90
24103;DHT22;12278;53.058;9.028;2022-11-15T19:33:16;12.50;99.90
24103;DHT22;12278;53.058;9.028;2022-11-15T19:37:17;12.40;99.90
24103;DHT22;12278;53.058;9.028;2022-11-15T19:41:20;12.30;99.90
24103;DHT22;12278;53.058;9.028;2022-11-15T19:45:20;12.30;99.90
24103;DHT22;12278;53.058;9.028;2022-11-15T19:49:21;12.40;99.90
24103;DHT22;12278;53.058;9.028;2022-11-15T19:53:22;12.50;99.90
24103;DHT22;12278;53.058;9.028;2022-11-15T19:57:23;12.50;99.90
24103;DHT22;12278;53.058;9.028;2022-11-15T20:01:29;12.60;99.90
24103;DHT22;12278;53.058;9.028;2022-11-15T20:05:30;12.60;99.90
24103;DHT22;12278;53.058;9.028;2022-11-15T20:09:30;12.50;99.90
24103;DHT22;12278;53.058;9.028;2022-11-15T20:13:31;12.60;99.90
24103;DHT22;12278;53.058;9.028;2022-11-15T20:17:32;12.70;99.90
24103;DHT22;12278;53.058;9.028;2022-11-15T20:21:33;12.60;99.90
24103;DHT22;12278;53.058;9.028;2022-11-15T20:25:35;12.70;99.90
24103;DHT22;12278;53.058;9.028;2022-11-15T20:29:38;12.70;99.90
24103;DHT22;12278;53.058;9.028;2022-11-15T20:33:39;12.60;99.90
24103;DHT22;12278;53.058;9.028;2022-11-15T20:37:40;12.60;99.90
24103;DHT22;12278;53.058;9.028;2022-11-15T20:41:40;12.60;99.90
24103;DHT22;12278;53.058;9.028;2022-11-15T20:45:45;12.60;99.90
24103;DHT22;12278;53.058;9.028;2022-11-15T20:49:46;12.70;99.90
24103;DHT22;12278;53.058;9.028;2022-11-15T20:53:47;12.60;99.90
24103;DHT22;12278;53.058;9.028;2022-11-15T20:57:48;12.60;99.90
24103;DHT22;12278;53.058;9.028;2022-11-15T21:01:48;12.60;99.90
24103;DHT22;12278;53.058;9.028;2022-11-15T21:05:52;12.60;99.90
24103;DHT22;12278;53.058;9.028;2022-11-15T21:09:53;12.50;99.90
24103;DHT22;12278;53.058;9.028;2022-11-15T21:14:12;12.60;99.90
24103;DHT22;12278;53.058;9.028;2022-11-15T21:18:15;12.50;99.90
24103;DHT22;12278;53.058;9.028;2022-11-15T21:22:16;12.50;99.90
24103;DHT22;12278;53.058;9.028;2022-11-15T21:26:19;12.50;99.90
24103;DHT22;12278;53.058;9.028;2022-11-15T21:30:20;12.50;99.90
24103;DHT22;12278;53.058;9.028;2022-11-15T21:34:21;12.50;99.90
24103;DHT22;12278;53.058;9.028;2022-11-15T21:38:27;12.40;99.90
24103;DHT22;12278;53.058;9.028;2022-11-15T21:42:27;12.40;99.90
24103;DHT22;12278;53.058;9.028;2022-11-15T21:46:29;12.50;99.90
24103;DHT22;12278;53.058;9.028;2022-11-15T21:50:30;12.50;99.90
24103;DHT22;12278;53.058;9.028;2022-11-15T21:54:30;12.50;99.90
24103;DHT22;12278;53.058;9.028;2022-11-15T21:58:31;12.50;99.90
24103;DHT22;12278;53.058;9.028;2022-11-15T22:02:32;12.50;99.90
24103;DHT22;12278;53.058;9.028;2022-11-15T22:06:34;12.50;99.90
24103;DHT22;12278;53.058;9.028;2022-11-15T22:10:35;12.50;99.90
24103;DHT22;12278;53.058;9.028;2022-11-15T22:14:35;12.50;99.90
24103;DHT22;12278;53.058;9.028;2022-11-15T22:18:38;12.50;99.90
24103;DHT22;12278;53.058;9.028;2022-11-15T22:22:40;12.50;99.90
24103;DHT22;12278;53.058;9.028;2022-11-15T22:26:41;12.60;99.90
24103;DHT22;12278;53.058;9.028;2022-11-15T22:30:44;12.60;99.90
24103;DHT22;12278;53.058;9.028;2022-11-15T22:34:45;12.70;99.90
24103;DHT22;12278;53.058;9.028;2022-11-15T22:38:45;12.60;99.90
24103;DHT22;12278;53.058;9.028;2022-11-15T22:42:46;12.60;99.90
24103;DHT22;12278;53.058;9.028;2022-11-15T22:46:47;12.60;99.90
24103;DHT22;12278;53.058;9.028;2022-11-15T22:50:47;12.50;99.90
24103;DHT22;12278;53.058;9.028;2022-11-15T22:54:50;12.50;99.90
24103;DHT22;12278;53.058;9.028;2022-11-15T22:58:50;12.60;99.90
24103;DHT22;12278;53.058;9.028;2022-11-15T23:02:51;12.50;99.90
24103;DHT22;12278;53.058;9.028;2022-11-15T23:06:52;12.60;99.90
24103;DHT22;12278;53.058;9.028;2022-11-15T23:10:52;12.50;99.90
24103;DHT22;12278;53.058;9.028;2022-11-15T23:15:11;12.60;99.90
24103;DHT22;12278;53.058;9.028;2022-11-15T23:19:12;12.60;99.90
24103;DHT22;12278;53.058;9.028;2022-11-15T23:23:13;12.60;99.90
24103;DHT22;12278;53.058;9.028;2022-11-15T23:27:14;12.70;99.90
24103;DHT22;12278;53.058;9.028;2022-11-15T23:31:19;12.70;99.90
24103;DHT22;12278;53.058;9.028;2022-11-15T23:35:38;12.70;99.90
24103;DHT22;12278;53.058;9.028;2022-11-15T23:39:39;12.70;99.90
24103;DHT22;12278;53.058;9.028;2022-11-15T23:43:39;12.60;99.90
24103;DHT22;12278;53.058;9.028;2022-11-15T23:47:40;12.60;99.90
24103;DHT22;12278;53.058;9.028;2022-11-15T23:51:43;12.60;99.90
24103;DHT22;12278;53.058;9.028;2022-11-15T23:55:43;12.70;99.90
24103;DHT22;12278;53.058;9.028;2022-11-15T23:59:53;12.70;99.90
